Tropical Cyclones
[Index]
Main Index Home Page Stock Weather Photos Extreme Storms Discussion Storm News and Storm Chasing Reports Tropical Cyclones / Hurricanes / Typhoons Weather Data and Links Wild Fires / Bushfires Weather Observation Techniques Weather Picture Catalogue Tornado Pictures and Reports Stock Video Footage and DVDs for sale
Season 1987-1988 Tropical Cyclone AGI Track Map
Season 1987-1988 Summaries: [BoM-AU] [JTWC-AU] [JTWC-SIO] [JTWC-SPAC] [JTWC-SH]
<<- Previous TC | JTWC 1987-1988 Season | Next TC ->>

click for intensity scale information  Lat/long Grid: Show Hide

 Date Labels: Show Hide

Joint Typhoon Warning Centre Cyclone Data

Name: AGI

03 Jan 1988 00:00 UTC to 15 Jan 1988 00:00 UTC

    date/time    lat    long     hPa   cat  kts
1988-01-03 00   11.5   171.1                  20          
1988-01-03 06   11.8   169.9                  20          
1988-01-03 12   12.4   168.7                  20          
1988-01-03 18   13.3   167.9                  20          
1988-01-04 00   14.3   167.2                  20          
1988-01-04 06   15.1   166.6                  20          
1988-01-04 12   15.7   166.0                  20          
1988-01-04 18   16.3   165.4                  20          
1988-01-05 00   16.8   164.7                  25          
1988-01-05 06   17.0   164.0                  25          
1988-01-05 12   17.1   163.3                  25          
1988-01-05 18   17.1   162.6                  25          
1988-01-06 00   17.1   161.9                  30          
1988-01-06 06   17.1   161.2                  35          
1988-01-06 12   17.1   160.5                  35          
1988-01-06 18   17.1   159.8                  35          
1988-01-07 00   17.0   159.0                  30          
1988-01-07 06   16.4   158.3                  25          
1988-01-07 12   15.6   157.8                  25          
1988-01-07 18   14.7   157.6                  25          
1988-01-08 00   14.3   157.3                  25          
1988-01-08 06   14.0   157.0                  30          
1988-01-08 12   13.8   156.7                  30          
1988-01-08 18   13.6   156.4                  30          
1988-01-09 00   13.4   156.1                  30          
1988-01-09 06   13.2   155.8                  35          
1988-01-09 12   13.0   155.5                  35          
1988-01-09 18   12.8   155.0                  35          
1988-01-10 00   12.3   154.7                  35          
1988-01-10 06   11.8   154.5                  35          
1988-01-10 12   11.4   154.5                  35          
1988-01-10 18   11.0   154.6            1     40          
1988-01-11 00   10.6   154.6            1     40          
1988-01-11 06   10.7   154.3            1     45          
1988-01-11 12   10.8   154.0            1     50          
1988-01-11 18   10.8   153.8            1     50          
1988-01-12 00   10.9   153.5            2     55          
1988-01-12 06   11.1   153.1            2     55          
1988-01-12 12   12.0   153.4            2     55          
1988-01-12 18   13.1   154.0            2     55          
1988-01-13 00   14.1   154.7            2     55          
1988-01-13 06   15.0   155.4            2     60          
1988-01-13 12   16.1   156.8            2     65          
1988-01-13 18   17.2   158.7            2     70          
1988-01-14 00   18.3   161.2            2     60          
1988-01-14 06   20.0   163.4            1     50          
1988-01-14 12   21.7   165.4            1     40          
1988-01-14 18   23.1   167.4                  30          
1988-01-15 00   25.4   171.0                  20          
Winds are 1-min average.

Tropical cyclone tracks developed by Michael Bath using data from the Joint Typhoon Warning Centre Best Tracks and Google Maps.


[Australian Severe Weather index] [Copyright Notice] [Email Contacts] [Search This Site] [Privacy Policy]
Document: tropical_cyclone_agi.htm Updated: 18 September 2016